createdAt,value
2022-09-22T00:01:41.120Z,5.28
2022-09-22T00:04:10.064Z,5.28
2022-09-22T00:06:41.017Z,5.47
2022-09-22T00:09:09.616Z,6.00
2022-09-22T00:11:37.498Z,5.35
2022-09-22T00:14:05.972Z,4.88
2022-09-22T00:16:37.402Z,5.40
2022-09-22T00:19:07.632Z,5.65
2022-09-22T00:21:33.973Z,4.80
2022-09-22T00:24:04.243Z,5.43
2022-09-22T00:26:31.235Z,5.38
2022-09-22T00:28:57.544Z,6.10
2022-09-22T00:31:25.365Z,5.32
2022-09-22T00:33:52.705Z,5.63
2022-09-22T00:36:19.966Z,5.45
2022-09-22T00:38:46.689Z,5.47
2022-09-22T00:41:18.029Z,4.93
2022-09-22T00:43:46.971Z,6.40
2022-09-22T00:46:24.466Z,6.72
2022-09-22T00:49:02.245Z,6.15
2022-09-22T00:51:29.943Z,6.15
2022-09-22T00:53:57.484Z,7.10
2022-09-22T00:56:37.378Z,7.18
2022-09-22T00:59:06.888Z,6.72
2022-09-22T01:01:36.766Z,6.65
2022-09-22T01:04:03.707Z,8.07
2022-09-22T01:06:30.433Z,6.05
2022-09-22T01:08:57.276Z,6.20
2022-09-22T01:11:25.136Z,6.43
2022-09-22T01:13:57.382Z,6.93
2022-09-22T01:16:32.556Z,7.03
2022-09-22T01:19:08.017Z,6.35
2022-09-22T01:21:38.582Z,5.40
2022-09-22T01:24:23.318Z,5.35
2022-09-22T01:26:59.136Z,6.30
2022-09-22T01:29:44.374Z,6.37
2022-09-22T01:32:19.720Z,6.18
2022-09-22T01:34:57.632Z,6.27
2022-09-22T01:37:26.391Z,5.32
2022-09-22T01:39:57.075Z,6.00
2022-09-22T01:42:30.299Z,5.20
2022-09-22T01:45:00.177Z,6.37
2022-09-22T01:47:28.367Z,5.37
2022-09-22T01:50:00.438Z,8.07
2022-09-22T01:52:28.079Z,6.03
2022-09-22T01:54:57.978Z,5.93
2022-09-22T01:57:43.130Z,7.10
2022-09-22T02:00:09.895Z,7.18
2022-09-22T02:02:50.528Z,7.28
2022-09-22T02:05:35.629Z,7.95
2022-09-22T02:08:03.719Z,6.53
2022-09-22T02:10:32.171Z,6.35
2022-09-22T02:12:58.558Z,6.30
2022-09-22T02:15:43.534Z,7.43
2022-09-22T02:18:13.555Z,5.57
2022-09-22T02:20:40.576Z,5.40
2022-09-22T02:23:07.187Z,5.87
2022-09-22T02:25:33.544Z,5.83
2022-09-22T02:28:00.418Z,5.60
2022-09-22T02:30:27.024Z,6.63
2022-09-22T02:32:54.315Z,5.57
2022-09-22T02:35:21.639Z,6.23
2022-09-22T02:38:02.368Z,5.23
2022-09-22T02:40:31.790Z,6.88
2022-09-22T02:43:01.623Z,5.37
2022-09-22T02:45:30.914Z,5.70
2022-09-22T02:47:57.282Z,5.53
2022-09-22T02:50:25.003Z,4.90
2022-09-22T02:52:52.075Z,5.60
2022-09-22T02:55:19.020Z,5.03
2022-09-22T02:57:45.284Z,5.43
2022-09-22T03:00:11.776Z,5.67
2022-09-22T03:02:38.052Z,5.50
2022-09-22T03:05:04.939Z,5.63
2022-09-22T03:07:31.477Z,5.13
2022-09-22T03:09:57.751Z,5.93
2022-09-22T03:12:24.052Z,5.10
2022-09-22T03:14:50.395Z,5.17
2022-09-22T03:17:16.730Z,5.80
2022-09-22T03:19:43.099Z,5.40
2022-09-22T03:22:09.454Z,5.53
2022-09-22T03:24:35.704Z,5.03
2022-09-22T03:27:02.044Z,5.47
2022-09-22T03:29:28.327Z,5.33
2022-09-22T03:31:54.600Z,5.73
2022-09-22T03:34:20.871Z,6.93
2022-09-22T03:36:47.411Z,6.03
2022-09-22T03:39:13.723Z,6.20
2022-09-22T03:41:41.004Z,5.97
2022-09-22T03:44:07.650Z,6.30
2022-09-22T03:46:34.458Z,6.10
2022-09-22T03:49:00.744Z,6.10
2022-09-22T03:51:27.183Z,5.43
2022-09-22T03:53:54.441Z,7.23
2022-09-22T03:56:20.765Z,6.17
2022-09-22T03:58:47.034Z,6.10
2022-09-22T04:01:13.504Z,5.53
2022-09-22T04:03:40.526Z,6.17
2022-09-22T04:06:06.869Z,6.27
2022-09-22T04:08:33.426Z,5.97
2022-09-22T04:11:00.138Z,5.97
2022-09-22T04:13:26.748Z,6.57
2022-09-22T04:15:53.036Z,6.30
2022-09-22T04:18:19.335Z,6.57
2022-09-22T04:20:45.674Z,7.67
2022-09-22T04:23:12.753Z,6.27
2022-09-22T04:25:39.413Z,6.37
2022-09-22T04:28:05.918Z,6.97
2022-09-22T04:30:32.912Z,5.70
2022-09-22T04:33:01.995Z,6.90
2022-09-22T04:35:28.486Z,7.30
2022-09-22T04:37:55.658Z,7.27
2022-09-22T04:40:22.531Z,6.30
2022-09-22T04:42:49.148Z,6.23
2022-09-22T04:45:16.512Z,6.70
2022-09-22T04:47:49.610Z,6.93
2022-09-22T04:50:16.760Z,6.17
2022-09-22T04:52:46.852Z,5.83
2022-09-22T04:55:13.391Z,5.40
2022-09-22T04:57:39.767Z,5.83
2022-09-22T05:00:06.663Z,6.97
2022-09-22T05:02:34.108Z,7.70
2022-09-22T05:05:00.368Z,6.93
2022-09-22T05:07:26.659Z,7.53
2022-09-22T05:09:52.928Z,6.90
2022-09-22T05:12:20.394Z,8.37
2022-09-22T05:14:46.702Z,7.47
2022-09-22T05:17:13.054Z,8.77
2022-09-22T05:19:39.366Z,9.43
2022-09-22T05:22:05.632Z,8.60
2022-09-22T05:24:32.391Z,9.60
2022-09-22T05:26:59.032Z,9.43
2022-09-22T05:29:27.876Z,8.90
2022-09-22T05:31:54.471Z,9.13
2022-09-22T05:34:20.800Z,9.20
2022-09-22T05:36:47.064Z,8.53
2022-09-22T05:39:13.375Z,8.40
2022-09-22T05:41:39.712Z,8.17
2022-09-22T05:44:05.995Z,7.33
2022-09-22T05:46:32.554Z,7.07
2022-09-22T05:48:58.839Z,7.37
2022-09-22T05:51:25.167Z,7.60
2022-09-22T05:53:52.362Z,7.07
2022-09-22T05:56:18.624Z,7.73
2022-09-22T05:58:46.592Z,8.40
2022-09-22T06:01:13.016Z,9.27
2022-09-22T06:03:39.340Z,8.10
2022-09-22T06:06:05.719Z,8.13
2022-09-22T06:08:32.089Z,9.83
2022-09-22T06:10:58.535Z,9.07
2022-09-22T06:13:24.814Z,9.70
2022-09-22T06:15:51.171Z,9.20
2022-09-22T06:18:24.654Z,10.07
2022-09-22T06:20:51.589Z,9.13
2022-09-22T06:23:17.977Z,10.13
2022-09-22T06:25:44.373Z,11.07
2022-09-22T06:28:11.826Z,12.30
2022-09-22T06:30:40.923Z,10.93
2022-09-22T06:33:08.066Z,11.27
2022-09-22T06:35:37.827Z,11.23
2022-09-22T06:38:05.834Z,11.17
2022-09-22T06:40:32.908Z,11.18
2022-09-22T06:42:59.849Z,11.90
2022-09-22T06:45:27.132Z,12.68
2022-09-22T06:48:00.647Z,12.63
2022-09-22T06:50:32.727Z,13.15
2022-09-22T06:53:05.031Z,14.43
2022-09-22T06:55:31.798Z,14.10
2022-09-22T06:58:02.778Z,15.88
2022-09-22T07:00:33.553Z,14.38
2022-09-22T07:03:07.154Z,14.95
2022-09-22T07:05:33.419Z,14.60
2022-09-22T07:07:59.709Z,16.05
2022-09-22T07:10:26.018Z,14.95
2022-09-22T07:12:52.296Z,15.68
2022-09-22T07:15:18.534Z,16.85
2022-09-22T07:17:44.804Z,15.75
2022-09-22T07:20:11.150Z,16.10
2022-09-22T07:22:39.423Z,15.80
2022-09-22T07:25:07.067Z,15.40
2022-09-22T07:27:33.344Z,14.63
2022-09-22T07:29:59.646Z,15.02
2022-09-22T07:32:28.140Z,15.00
2022-09-22T07:34:54.401Z,16.17
2022-09-22T07:37:20.681Z,15.90
2022-09-22T07:39:46.958Z,15.48
2022-09-22T07:42:13.309Z,16.65
2022-09-22T07:45:02.631Z,14.60
2022-09-22T07:47:47.795Z,13.27
2022-09-22T07:50:17.203Z,13.73
2022-09-22T07:52:49.799Z,14.50
2022-09-22T07:55:16.822Z,13.32
2022-09-22T07:57:43.063Z,12.85
2022-09-22T08:00:09.726Z,12.88
2022-09-22T08:02:35.974Z,12.50
2022-09-22T08:05:03.276Z,12.88
2022-09-22T08:07:31.397Z,13.73
2022-09-22T08:09:58.273Z,12.65
2022-09-22T08:12:24.871Z,12.40
2022-09-22T08:14:53.454Z,11.73
2022-09-22T08:17:19.705Z,11.38
2022-09-22T08:19:46.219Z,12.20
2022-09-22T08:22:12.487Z,10.80
2022-09-22T08:24:38.751Z,9.90
2022-09-22T08:27:05.141Z,9.05
2022-09-22T08:29:31.388Z,9.00
2022-09-22T08:31:57.728Z,9.48
2022-09-22T08:34:24.062Z,9.07
2022-09-22T08:36:50.400Z,7.60
2022-09-22T08:39:17.302Z,7.43
2022-09-22T08:41:55.603Z,7.90
2022-09-22T08:44:28.152Z,7.55
2022-09-22T08:46:56.686Z,7.88
2022-09-22T08:49:56.426Z,9.07
2022-09-22T08:52:28.839Z,7.38
2022-09-22T08:54:59.805Z,8.15
2022-09-22T08:57:49.245Z,6.70
2022-09-22T09:00:19.531Z,7.07
2022-09-22T09:02:55.334Z,7.13
2022-09-22T09:05:27.524Z,7.55
2022-09-22T09:08:00.155Z,7.45
2022-09-22T09:10:35.288Z,7.15
2022-09-22T09:15:34.446Z,6.43
2022-09-22T09:18:03.159Z,6.50
2022-09-22T09:20:38.902Z,6.63
2022-09-22T09:23:10.550Z,6.45
2022-09-22T09:25:40.115Z,7.22
2022-09-22T09:28:18.674Z,6.53
2022-09-22T09:30:52.366Z,6.70
2022-09-22T09:33:23.766Z,7.00
2022-09-22T09:35:52.915Z,6.43
2022-09-22T09:38:30.743Z,5.85
2022-09-22T09:41:20.625Z,5.78
2022-09-22T09:43:46.987Z,6.10
2022-09-22T09:46:26.667Z,6.30
2022-09-22T09:48:52.984Z,4.95
2022-09-22T09:51:19.979Z,4.38
2022-09-22T09:53:46.865Z,5.13
2022-09-22T09:56:26.752Z,4.93
2022-09-22T09:59:16.240Z,4.70
2022-09-22T10:01:44.182Z,4.20
2022-09-22T10:04:22.477Z,4.68
2022-09-22T10:06:48.801Z,4.15
2022-09-22T10:09:28.558Z,5.55
2022-09-22T10:12:01.693Z,4.88
2022-09-22T10:14:31.575Z,4.07
2022-09-22T10:16:58.110Z,4.00
2022-09-22T10:19:31.125Z,3.63
2022-09-22T10:22:39.725Z,4.47
2022-09-22T10:25:07.796Z,3.72
2022-09-22T10:27:34.046Z,4.32
2022-09-22T10:30:13.646Z,4.57
2022-09-22T10:32:40.160Z,4.20
2022-09-22T10:35:26.062Z,5.13
2022-09-22T10:37:53.403Z,3.72
2022-09-22T10:40:21.527Z,3.25
2022-09-22T10:42:48.243Z,2.88
2022-09-22T10:45:15.451Z,2.65
2022-09-22T10:47:52.023Z,3.03
2022-09-22T10:50:37.958Z,2.65
2022-09-22T10:53:10.618Z,3.58
2022-09-22T10:55:54.179Z,3.40
2022-09-22T10:58:44.659Z,4.25
2022-09-22T11:01:34.332Z,3.53
2022-09-22T11:04:13.817Z,3.65
2022-09-22T11:06:58.748Z,3.72
2022-09-22T11:09:49.864Z,3.17
2022-09-22T11:12:21.872Z,3.20
2022-09-22T11:14:51.189Z,2.72
2022-09-22T11:17:21.003Z,2.67
2022-09-22T11:19:55.523Z,2.63
2022-09-22T11:22:29.700Z,3.35
2022-09-22T11:24:58.722Z,3.63
2022-09-22T11:27:28.865Z,3.05
2022-09-22T11:30:01.029Z,2.83
2022-09-22T11:32:37.424Z,3.28
2022-09-22T11:35:12.935Z,2.60
2022-09-22T11:37:58.655Z,2.50
2022-09-22T11:40:27.666Z,2.72
2022-09-22T11:43:12.504Z,2.88
2022-09-22T11:45:45.176Z,3.33
2022-09-22T11:48:24.727Z,2.60
2022-09-22T11:51:03.119Z,2.70
2022-09-22T11:53:38.615Z,2.80
2022-09-22T11:56:06.319Z,2.75
2022-09-22T11:58:33.434Z,2.90
2022-09-22T12:01:12.953Z,2.90
2022-09-22T12:03:43.394Z,3.03
2022-09-22T12:06:12.535Z,3.00
2022-09-22T12:08:43.457Z,2.88
2022-09-22T12:11:10.910Z,2.83
2022-09-22T12:13:41.224Z,2.63
2022-09-22T12:16:22.578Z,2.65
2022-09-22T12:18:53.129Z,2.40
2022-09-22T12:21:28.551Z,2.72
2022-09-22T12:23:55.271Z,2.60
2022-09-22T12:26:26.011Z,2.63
2022-09-22T12:28:52.360Z,2.80
2022-09-22T12:31:20.661Z,2.58
2022-09-22T12:33:52.202Z,2.53
2022-09-22T12:36:27.227Z,2.67
2022-09-22T12:39:05.746Z,2.60
2022-09-22T12:41:32.110Z,2.20
2022-09-22T12:44:08.157Z,2.40
2022-09-22T12:46:35.042Z,2.53
2022-09-22T12:49:06.574Z,3.15
2022-09-22T12:51:33.322Z,2.67
2022-09-22T12:54:18.442Z,3.55
2022-09-22T12:56:48.661Z,2.80
2022-09-22T12:59:34.131Z,2.63
2022-09-22T13:02:15.829Z,2.83
2022-09-22T13:04:42.697Z,2.88
2022-09-22T13:07:41.526Z,2.60
2022-09-22T13:10:22.926Z,2.47
2022-09-22T13:13:12.263Z,2.15
2022-09-22T13:15:49.386Z,2.35
2022-09-22T13:18:30.975Z,2.30
2022-09-22T13:20:57.926Z,2.60
2022-09-22T13:23:24.517Z,2.38
2022-09-22T13:25:51.811Z,2.45
2022-09-22T13:28:20.107Z,3.40
2022-09-22T13:30:48.857Z,2.60
2022-09-22T13:33:23.071Z,2.58
2022-09-22T13:36:15.527Z,2.58
2022-09-22T13:38:43.178Z,2.53
2022-09-22T13:41:11.021Z,2.28
2022-09-22T13:43:38.655Z,1.98
2022-09-22T13:46:06.296Z,2.55
2022-09-22T13:48:34.136Z,2.50
2022-09-22T13:51:03.330Z,2.55
2022-09-22T13:53:30.010Z,2.47
2022-09-22T13:55:57.107Z,2.00
2022-09-22T13:58:28.890Z,2.42
2022-09-22T14:01:14.414Z,2.22
2022-09-22T14:03:41.179Z,2.47
2022-09-22T14:06:13.044Z,1.90
2022-09-22T14:08:39.574Z,2.10
2022-09-22T14:11:08.204Z,3.10
2022-09-22T14:13:38.633Z,2.10
2022-09-22T14:16:13.631Z,2.50
2022-09-22T14:18:41.947Z,2.72
2022-09-22T14:21:09.104Z,2.72
2022-09-22T14:23:35.374Z,2.50
2022-09-22T14:26:03.796Z,2.58
2022-09-22T14:28:33.703Z,2.55
2022-09-22T14:31:00.005Z,2.50
2022-09-22T14:33:30.109Z,2.70
2022-09-22T14:36:05.918Z,2.53
2022-09-22T14:38:43.074Z,2.50
2022-09-22T14:41:23.497Z,2.60
2022-09-22T14:43:50.801Z,3.05
2022-09-22T14:46:33.504Z,2.92
2022-09-22T14:49:20.031Z,2.88
2022-09-22T14:51:47.515Z,2.25
2022-09-22T14:54:15.976Z,2.97
2022-09-22T14:56:43.740Z,2.85
2022-09-22T14:59:34.102Z,2.83
2022-09-22T15:02:19.224Z,3.00
2022-09-22T15:04:50.444Z,2.50
2022-09-22T15:07:36.227Z,2.40
2022-09-22T15:10:04.819Z,2.58
2022-09-22T15:12:39.127Z,3.17
2022-09-22T15:15:15.485Z,2.70
2022-09-22T15:18:01.434Z,2.42
2022-09-22T15:20:44.436Z,2.70
2022-09-22T15:23:29.287Z,3.15
2022-09-22T15:25:55.704Z,2.40
2022-09-22T15:28:23.800Z,2.90
2022-09-22T15:30:53.413Z,2.78
2022-09-22T15:33:20.323Z,2.35
2022-09-22T15:35:47.620Z,3.00
2022-09-22T15:38:19.207Z,3.35
2022-09-22T15:40:46.678Z,3.08
2022-09-22T15:43:14.011Z,2.97
2022-09-22T15:45:49.208Z,3.00
2022-09-22T15:48:23.583Z,2.38
2022-09-22T15:50:50.073Z,2.38
2022-09-22T15:53:16.425Z,3.15
2022-09-22T15:55:42.790Z,2.63
2022-09-22T15:58:11.807Z,3.85
2022-09-22T16:00:38.865Z,3.10
2022-09-22T16:03:12.895Z,2.42
2022-09-22T16:05:40.872Z,3.33
2022-09-22T16:08:08.411Z,2.88
2022-09-22T16:10:35.887Z,2.95
2022-09-22T16:13:03.646Z,3.10
2022-09-22T16:15:31.041Z,2.97
2022-09-22T16:17:57.318Z,3.15
2022-09-22T16:20:23.593Z,2.60
2022-09-22T16:22:50.820Z,2.83
2022-09-22T16:25:18.970Z,2.65
2022-09-22T16:27:45.241Z,2.72
2022-09-22T16:30:11.697Z,3.10
2022-09-22T16:32:38.063Z,2.42
2022-09-22T16:35:04.460Z,3.05
2022-09-22T16:37:30.728Z,2.53
2022-09-22T16:39:57.002Z,3.10
2022-09-22T16:42:23.971Z,2.53
2022-09-22T16:44:50.410Z,3.05
2022-09-22T16:47:21.028Z,2.67
2022-09-22T16:49:49.468Z,3.28
2022-09-22T16:52:15.731Z,3.80
2022-09-22T16:54:41.989Z,3.83
2022-09-22T16:57:08.284Z,3.42
2022-09-22T16:59:34.562Z,3.15
2022-09-22T17:02:00.871Z,2.58
2022-09-22T17:04:27.311Z,3.70
2022-09-22T17:06:54.778Z,3.33
2022-09-22T17:09:21.483Z,3.35
2022-09-22T17:11:48.774Z,3.80
2022-09-22T17:14:16.554Z,3.65
2022-09-22T17:16:45.453Z,3.65
2022-09-22T17:19:18.303Z,3.47
2022-09-22T17:21:45.785Z,3.47
2022-09-22T17:24:12.563Z,3.92
2022-09-22T17:26:47.294Z,3.78
2022-09-22T17:29:15.802Z,3.67
2022-09-22T17:31:42.842Z,3.30
2022-09-22T17:34:10.472Z,4.10
2022-09-22T17:36:37.427Z,3.22
2022-09-22T17:39:03.940Z,3.35
2022-09-22T17:41:34.343Z,3.70
2022-09-22T17:44:02.940Z,4.50
2022-09-22T17:46:31.036Z,3.20
2022-09-22T17:49:16.231Z,4.00
2022-09-22T17:52:02.575Z,3.00
2022-09-22T17:54:53.935Z,2.45
2022-09-22T17:57:21.815Z,3.10
2022-09-22T17:59:48.379Z,2.88
2022-09-22T18:02:15.834Z,5.05
2022-09-22T18:04:43.005Z,3.33
2022-09-22T18:07:10.409Z,2.47
2022-09-22T18:09:37.930Z,3.22
2022-09-22T18:12:05.593Z,3.15
2022-09-22T18:14:31.911Z,2.97
2022-09-22T18:16:58.214Z,3.03
2022-09-22T18:19:27.692Z,2.85
2022-09-22T18:21:54.611Z,4.10
2022-09-22T18:24:21.563Z,3.30
2022-09-22T18:26:50.671Z,3.30
2022-09-22T18:29:17.121Z,3.97
2022-09-22T18:31:43.924Z,9.55
2022-09-22T18:34:10.311Z,19.13
2022-09-22T18:36:37.381Z,16.45
2022-09-22T18:39:04.586Z,13.02
2022-09-22T18:41:32.320Z,8.30
2022-09-22T18:43:59.612Z,7.22
2022-09-22T18:46:29.535Z,5.25
2022-09-22T18:49:05.936Z,5.60
2022-09-22T18:51:32.815Z,5.32
2022-09-22T18:54:01.157Z,6.30
2022-09-22T18:56:27.695Z,6.80
2022-09-22T18:58:54.747Z,6.30
2022-09-22T19:01:22.751Z,6.35
2022-09-22T19:03:51.310Z,5.78
2022-09-22T19:06:18.048Z,5.10
2022-09-22T19:08:44.478Z,6.00
2022-09-22T19:11:13.947Z,5.60
2022-09-22T19:13:41.145Z,5.45
2022-09-22T19:16:07.455Z,5.75
2022-09-22T19:18:33.757Z,6.38
2022-09-22T19:21:03.621Z,5.90
2022-09-22T19:23:32.471Z,6.07
2022-09-22T19:25:59.522Z,5.80
2022-09-22T19:28:25.851Z,5.70
2022-09-22T19:30:52.195Z,5.80
2022-09-22T19:33:18.465Z,5.63
2022-09-22T19:35:44.843Z,5.95
2022-09-22T19:38:11.172Z,6.03
2022-09-22T19:40:37.522Z,5.65
2022-09-22T19:43:03.931Z,4.93
2022-09-22T19:45:30.405Z,5.22
2022-09-22T19:47:58.138Z,5.28
2022-09-22T19:50:25.113Z,5.20
2022-09-22T19:52:52.372Z,5.97
2022-09-22T19:55:21.172Z,4.97
2022-09-22T19:57:48.669Z,4.55
2022-09-22T20:00:25.717Z,5.63
2022-09-22T20:03:00.690Z,4.80
2022-09-22T20:05:32.546Z,6.38
2022-09-22T20:07:59.140Z,5.38
2022-09-22T20:10:25.483Z,5.68
2022-09-22T20:12:52.038Z,5.03
2022-09-22T20:15:18.874Z,4.90
2022-09-22T20:17:46.335Z,5.18
2022-09-22T20:20:17.125Z,4.90
2022-09-22T20:22:44.623Z,4.93
2022-09-22T20:25:21.920Z,4.85
2022-09-22T20:27:48.364Z,4.93
2022-09-22T20:30:16.075Z,4.55
2022-09-22T20:32:44.147Z,5.18
2022-09-22T20:35:11.790Z,4.53
2022-09-22T20:37:39.841Z,4.45
2022-09-22T20:40:07.677Z,4.50
2022-09-22T20:42:34.418Z,5.43
2022-09-22T20:45:00.740Z,5.45
2022-09-22T20:47:27.627Z,4.85
2022-09-22T20:49:54.011Z,5.60
2022-09-22T20:52:21.002Z,4.05
2022-09-22T20:54:47.967Z,4.75
2022-09-22T20:57:18.982Z,5.28
2022-09-22T20:59:45.779Z,4.78
2022-09-22T21:02:13.605Z,4.53
2022-09-22T21:04:40.450Z,6.28
2022-09-22T21:07:07.231Z,4.22
2022-09-22T21:09:52.015Z,5.30
2022-09-22T21:12:18.503Z,4.77
2022-09-22T21:14:45.814Z,4.18
2022-09-22T21:17:13.538Z,4.07
2022-09-22T21:19:40.418Z,4.47
2022-09-22T21:22:06.874Z,4.40
2022-09-22T21:24:34.137Z,4.20
2022-09-22T21:27:00.527Z,4.15
2022-09-22T21:29:27.725Z,4.05
2022-09-22T21:31:54.055Z,4.93
2022-09-22T21:34:20.374Z,4.10
2022-09-22T21:36:46.679Z,4.70
2022-09-22T21:39:13.188Z,4.35
2022-09-22T21:41:39.510Z,4.47
2022-09-22T21:44:05.949Z,4.88
2022-09-22T21:46:32.813Z,4.15
2022-09-22T21:49:01.741Z,5.18
2022-09-22T21:51:35.565Z,4.43
2022-09-22T21:54:05.657Z,4.90
2022-09-22T21:56:33.330Z,4.88
2022-09-22T21:58:59.879Z,4.80
2022-09-22T22:01:27.491Z,3.85
2022-09-22T22:03:54.332Z,4.53
2022-09-22T22:06:26.638Z,4.07
2022-09-22T22:08:55.530Z,5.35
2022-09-22T22:11:23.862Z,4.50
2022-09-22T22:13:52.056Z,4.28
2022-09-22T22:16:19.719Z,4.50
2022-09-22T22:18:46.027Z,4.38
2022-09-22T22:21:13.982Z,4.35
2022-09-22T22:23:41.771Z,4.25
2022-09-22T22:26:13.224Z,4.10
2022-09-22T22:28:43.862Z,4.68
2022-09-22T22:31:11.604Z,4.25
2022-09-22T22:33:39.164Z,5.22
2022-09-22T22:36:07.962Z,5.03
2022-09-22T22:38:38.017Z,4.63
2022-09-22T22:41:06.058Z,5.07
2022-09-22T22:43:32.778Z,4.63
2022-09-22T22:45:59.621Z,4.97
2022-09-22T22:48:26.359Z,4.82
2022-09-22T22:50:53.694Z,4.85
2022-09-22T22:53:20.470Z,5.55
2022-09-22T22:56:00.529Z,4.13
2022-09-22T22:58:28.572Z,4.88
2022-09-22T23:01:10.647Z,4.60
2022-09-22T23:03:41.203Z,5.03
2022-09-22T23:06:11.221Z,5.05
2022-09-22T23:08:37.554Z,4.53
2022-09-22T23:11:05.395Z,4.78
2022-09-22T23:13:32.275Z,4.85
2022-09-22T23:16:06.916Z,4.45
2022-09-22T23:18:35.193Z,5.63
2022-09-22T23:21:02.850Z,5.63
2022-09-22T23:23:29.125Z,5.32
2022-09-22T23:25:55.736Z,5.13
2022-09-22T23:28:22.001Z,5.45
2022-09-22T23:30:48.283Z,5.30
2022-09-22T23:33:14.582Z,4.95
2022-09-22T23:35:40.878Z,4.90
2022-09-22T23:38:09.028Z,5.28
2022-09-22T23:40:35.660Z,5.32
2022-09-22T23:43:02.033Z,4.50
2022-09-22T23:45:29.385Z,4.88
2022-09-22T23:47:55.954Z,4.35
2022-09-22T23:50:23.487Z,4.38
2022-09-22T23:52:50.845Z,5.03
2022-09-22T23:55:17.220Z,4.85
2022-09-22T23:57:43.479Z,4.55
